Sunday, December 17, 2017, 10:10 PM EST
Back to Local

KBKL, Cleveland Burke Lakefront

Location: Cleveland, OH, United States Lat: 41.533
Local Time: 10:10 PM EST ( 3:10 GMT) Lon: -81.667
Time Zone: US/Eastern Elev: 583 ft

Show me the last for .
Show Decoded

2017-12-17 21:53 METAR KBKL 180253Z 19009KT 10SM BKN030 OVC055 04/00 A3007 RMK AO2 SLP189
                 T00390000 50000 =
2017-12-17 21:43 METAR KBKL 180243Z 19011KT 10SM BKN030 OVC060 04/00 A3007 RMK AO2 T00390000 =
2017-12-17 21:27 METAR KBKL 180227Z 18008KT 10SM BKN028 OVC070 03/00 A3007 RMK AO2 T00330000 =
2017-12-17 20:53 METAR KBKL 180153Z 16010KT 10SM SCT024 OVC090 03/00 A3007 RMK AO2 SLP188
                 T00330000 =
2017-12-17 20:17 METAR KBKL 180117Z 15008KT 10SM BKN028 BKN090 OVC120 03/00 A3007 RMK AO2
                 T00280000 =
2017-12-17 19:53 METAR KBKL 180053Z 10SM BKN085 OVC120 03/00 A3008 RMK AO2 SLP191 T00330000 =
2017-12-17 18:53 METAR KBKL 172353Z 18006KT 10SM OVC100 03/M01 A3007 RMK AO2 SLP189 T00331006
                 10033 20022 55005 =
2017-12-17 17:53 METAR KBKL 172253Z 17006KT 10SM FEW100 BKN120 03/M01 A3007 RMK AO2 SLP187
                 T00331011 =
2017-12-17 16:53 METAR KBKL 172153Z 15006KT 8SM OVC095 03/M02 A3008 RMK AO2 SLP193 T00331017 =
2017-12-17 15:53 METAR KBKL 172053Z 15005KT 8SM BKN110 03/M02 A3009 RMK AO2 SLP195 T00281017
                 55012 =
2017-12-17 14:53 METAR KBKL 171953Z 14006KT 7SM SCT120 03/M02 A3008 RMK AO2 SLP193 T00281017 =
2017-12-17 13:53 METAR KBKL 171853Z 13003KT 8SM CLR 02/M02 A3009 RMK AO2 SLP194 T00221022 =
2017-12-17 12:53 METAR KBKL 171753Z 13003KT 8SM CLR 02/M02 A3012 RMK AO2 SLP207 T00221022 10022
                 21017 58025 =
2017-12-17 11:53 METAR KBKL 171653Z VRB03KT 8SM CLR 01/M02 A3015 RMK AO2 SLP215 T00111022 =
2017-12-17 10:53 METAR KBKL 171553Z 00000KT 5SM BR CLR 00/M02 A3020 RMK AO2 SLP232 T00001022 =
2017-12-17 09:53 METAR KBKL 171453Z 00000KT 5SM BR CLR M01/M03 A3020 RMK AO2 SLP233 T10061028
                 53004 =
2017-12-17 08:53 METAR KBKL 171353Z 00000KT 4SM BR CLR M01/M03 A3018 RMK AO2 SLP225 T10111033 =
2017-12-17 07:53 METAR KBKL 171253Z 08003KT 5SM BR CLR M02/M04 A3017 RMK AO2 SLP225 T10171039 =
2017-12-17 06:53 METAR KBKL 171153Z 09003KT 5SM BR CLR M02/M03 A3019 RMK AO2 SLP228 T10171033
                 11006 21022 53007 =
2017-12-17 05:53 METAR KBKL 171053Z 00000KT 5SM BR CLR M02/M03 A3018 RMK AO2 SLP227 T10171033 =
2017-12-17 04:53 METAR KBKL 170953Z 00000KT 5SM BR CLR M02/M03 A3017 RMK AO2 SLP221 T10171033 =
2017-12-17 03:53 METAR KBKL 170853Z 00000KT 5SM BR CLR M02/M03 A3016 RMK AO2 SLP221 T10171033
                 52005 =
2017-12-17 02:53 METAR KBKL 170753Z 00000KT 5SM BR CLR M01/M03 A3016 RMK AO2 SLP218 T10111033 =
2017-12-17 01:53 METAR KBKL 170653Z 00000KT 6SM BR CLR M01/M03 A3016 RMK AO2 SLP219 T10111033 =
2017-12-17 00:53 METAR KBKL 170553Z 13003KT 7SM CLR M01/M03 A3015 RMK AO2 SLP216 T10061028 10011
                 21011 51006 =
2017-12-16 23:53 METAR KBKL 170453Z 16003KT 6SM BR CLR M01/M03 A3014 RMK AO2 SLP213 T10061028
                 400441022 =
2017-12-16 22:53 METAR KBKL 170353Z 06005KT 5SM BR CLR M01/M02 A3014 RMK AO2 SLP212 T10061017 =

Support USWX by starting your Amazon purchase here.